createdAt,value
2022-10-28T00:01:23.369Z,101179.41
2022-10-28T00:03:52.646Z,101171.38
2022-10-28T00:06:22.745Z,101174.56
2022-10-28T00:08:49.760Z,101169.41
2022-10-28T00:11:19.859Z,101166.56
2022-10-28T00:13:46.551Z,101159.47
2022-10-28T00:16:21.373Z,101165.31
2022-10-28T00:18:48.382Z,101167.34
2022-10-28T00:21:17.582Z,101157.31
2022-10-28T00:23:44.533Z,101148.41
2022-10-28T00:26:12.518Z,101147.56
2022-10-28T00:28:43.834Z,101150.16
2022-10-28T00:31:13.684Z,101154.16
2022-10-28T00:33:40.542Z,101152.25
2022-10-28T00:36:34.829Z,101153.34
2022-10-28T00:39:03.178Z,101161.50
2022-10-28T00:41:36.294Z,101154.34
2022-10-28T00:44:47.807Z,101158.41
2022-10-28T00:47:55.300Z,101151.59
2022-10-28T00:50:46.755Z,101156.00
2022-10-28T00:53:21.670Z,101155.03
2022-10-28T00:55:49.612Z,101162.84
2022-10-28T00:58:17.568Z,101154.31
2022-10-28T01:00:43.980Z,101153.00
2022-10-28T01:03:10.428Z,101148.09
2022-10-28T01:05:39.714Z,101157.97
2022-10-28T01:08:06.692Z,101162.13
2022-10-28T01:10:58.005Z,101157.03
2022-10-28T01:13:47.644Z,101159.31
2022-10-28T01:16:38.502Z,101163.34
2022-10-28T01:19:26.107Z,101165.16
2022-10-28T01:22:19.418Z,101175.13
2022-10-28T01:25:18.471Z,101168.19
2022-10-28T01:27:47.542Z,101173.56
2022-10-28T01:30:18.550Z,101181.38
2022-10-28T01:33:12.886Z,101182.53
2022-10-28T01:35:57.532Z,101179.34
2022-10-28T01:38:39.678Z,101177.13
2022-10-28T01:41:06.058Z,101183.63
2022-10-28T01:43:38.515Z,101196.28
2022-10-28T01:46:11.462Z,101181.03
2022-10-28T01:48:47.410Z,101179.63
2022-10-28T01:51:21.043Z,101191.16
2022-10-28T01:53:51.354Z,101181.88
2022-10-28T01:56:23.557Z,101183.00
2022-10-28T01:58:51.125Z,101182.72
2022-10-28T02:01:18.604Z,101162.41
2022-10-28T02:03:47.302Z,101175.16
2022-10-28T02:06:20.323Z,101172.06
2022-10-28T02:08:57.486Z,101168.72
2022-10-28T02:11:34.307Z,101159.44
2022-10-28T02:14:22.697Z,101165.59
2022-10-28T02:16:51.303Z,101167.81
2022-10-28T02:19:32.659Z,101161.91
2022-10-28T02:22:08.055Z,101175.06
2022-10-28T02:24:54.497Z,101161.53
2022-10-28T02:27:51.907Z,101151.28
2022-10-28T02:30:22.848Z,101141.81
2022-10-28T02:32:56.227Z,101145.72
2022-10-28T02:35:30.735Z,101149.06
2022-10-28T02:38:01.531Z,101143.59
2022-10-28T02:40:30.469Z,101155.22
2022-10-28T02:43:04.799Z,101164.16
2022-10-28T02:45:34.556Z,101165.19
2022-10-28T02:48:07.073Z,101164.72
2022-10-28T02:50:38.043Z,101154.63
2022-10-28T02:53:27.801Z,101142.84
2022-10-28T02:55:57.245Z,101139.47
2022-10-28T02:58:23.774Z,101136.00
2022-10-28T03:00:51.186Z,101136.72
2022-10-28T03:03:17.768Z,101139.09
2022-10-28T03:05:44.534Z,101129.63
2022-10-28T03:08:10.946Z,101132.75
2022-10-28T03:10:37.391Z,101135.94
2022-10-28T03:13:03.778Z,101126.91
2022-10-28T03:15:30.204Z,101123.66
2022-10-28T03:17:56.578Z,101123.28
2022-10-28T03:20:22.975Z,101139.09
2022-10-28T03:22:49.330Z,101126.38
2022-10-28T03:25:15.816Z,101116.94
2022-10-28T03:27:42.265Z,101114.47
2022-10-28T03:30:09.073Z,101106.34
2022-10-28T03:32:35.452Z,101110.44
2022-10-28T03:35:01.827Z,101100.38
2022-10-28T03:37:28.197Z,101094.38
2022-10-28T03:39:54.561Z,101091.84
2022-10-28T03:42:20.966Z,101100.91
2022-10-28T03:44:47.338Z,101090.69
2022-10-28T03:47:13.727Z,101083.03
2022-10-28T03:49:40.112Z,101092.22
2022-10-28T03:52:06.486Z,101097.34
2022-10-28T03:54:32.872Z,101098.09
2022-10-28T03:56:59.364Z,101094.22
2022-10-28T03:59:25.739Z,101088.00
2022-10-28T04:01:52.257Z,101096.47
2022-10-28T04:04:18.724Z,101090.88
2022-10-28T04:06:45.200Z,101098.16
2022-10-28T04:09:11.568Z,101095.63
2022-10-28T04:11:37.970Z,101092.47
2022-10-28T04:14:04.360Z,101089.78
2022-10-28T04:16:30.763Z,101081.19
2022-10-28T04:18:57.315Z,101076.81
2022-10-28T04:21:23.711Z,101083.91
2022-10-28T04:23:50.087Z,101074.25
2022-10-28T04:26:16.501Z,101070.50
2022-10-28T04:28:42.929Z,101068.09
2022-10-28T04:31:12.038Z,101071.16
2022-10-28T04:33:38.497Z,101081.53
2022-10-28T04:36:05.104Z,101086.03
2022-10-28T04:38:31.527Z,101088.16
2022-10-28T04:40:57.987Z,101083.16
2022-10-28T04:43:24.488Z,101083.41
2022-10-28T04:45:50.901Z,101079.66
2022-10-28T04:48:17.320Z,101078.47
2022-10-28T04:50:43.723Z,101071.28
2022-10-28T04:53:10.460Z,101064.53
2022-10-28T04:55:36.851Z,101065.78
2022-10-28T04:58:03.358Z,101060.47
2022-10-28T05:00:30.327Z,101064.66
2022-10-28T05:02:57.539Z,101061.97
2022-10-28T05:05:24.308Z,101058.22
2022-10-28T05:07:50.861Z,101042.78
2022-10-28T05:10:18.093Z,101037.56
2022-10-28T05:12:47.641Z,101027.72
2022-10-28T05:15:15.498Z,101037.81
2022-10-28T05:17:46.424Z,101040.97
2022-10-28T05:20:14.537Z,101047.28
2022-10-28T05:22:48.669Z,101044.38
2022-10-28T05:25:15.146Z,101047.88
2022-10-28T05:27:41.713Z,101051.16
2022-10-28T05:30:09.211Z,101049.22
2022-10-28T05:32:35.830Z,101035.19
2022-10-28T05:35:03.085Z,101033.59
2022-10-28T05:37:29.581Z,101029.22
2022-10-28T05:39:56.034Z,101024.69
2022-10-28T05:42:22.439Z,101020.44
2022-10-28T05:44:48.831Z,101020.22
2022-10-28T05:47:15.321Z,101018.41
2022-10-28T05:49:41.871Z,101012.75
2022-10-28T05:52:08.263Z,101018.00
2022-10-28T05:54:34.634Z,101004.34
2022-10-28T05:57:01.148Z,101008.50
2022-10-28T05:59:27.542Z,101008.06
2022-10-28T06:01:53.951Z,101015.72
2022-10-28T06:04:20.412Z,101014.88
2022-10-28T06:06:46.855Z,101010.94
2022-10-28T06:09:13.301Z,100999.84
2022-10-28T06:11:38.118Z,101001.69
2022-10-28T06:14:04.509Z,100995.44
2022-10-28T06:16:30.883Z,101010.44
2022-10-28T06:18:57.411Z,101003.94
2022-10-28T06:21:23.778Z,100990.31
2022-10-28T06:23:50.597Z,100990.00
2022-10-28T06:26:17.038Z,100990.72
2022-10-28T06:28:45.949Z,100994.91
2022-10-28T06:31:12.392Z,100995.34
2022-10-28T06:33:38.901Z,100994.66
2022-10-28T06:36:05.768Z,100991.19
2022-10-28T06:38:32.193Z,100998.88
2022-10-28T06:40:58.828Z,101011.22
2022-10-28T06:43:25.227Z,101008.56
2022-10-28T06:45:55.251Z,101015.81
2022-10-28T06:48:23.591Z,101023.34
2022-10-28T06:50:50.027Z,101017.31
2022-10-28T06:53:16.573Z,101019.28
2022-10-28T06:55:48.561Z,101014.06
2022-10-28T06:58:15.317Z,101011.38
2022-10-28T07:00:41.786Z,101009.56
2022-10-28T07:03:09.603Z,101006.72
2022-10-28T07:05:36.095Z,101012.09
2022-10-28T07:08:02.568Z,101008.47
2022-10-28T07:11:04.320Z,101015.66
2022-10-28T07:13:34.394Z,101023.91
2022-10-28T07:16:01.519Z,101026.19
2022-10-28T07:18:33.425Z,101023.44
2022-10-28T07:21:01.456Z,101015.19
2022-10-28T07:23:34.229Z,101020.97
2022-10-28T07:26:03.406Z,101015.81
2022-10-28T07:28:38.656Z,101020.72
2022-10-28T07:31:05.221Z,101014.69
2022-10-28T07:33:31.724Z,101023.97
2022-10-28T07:35:58.125Z,101028.06
2022-10-28T07:38:24.621Z,101022.34
2022-10-28T07:40:51.049Z,101019.75
2022-10-28T07:43:37.330Z,101023.53
2022-10-28T07:46:05.305Z,101021.63
2022-10-28T07:48:31.863Z,101010.63
2022-10-28T07:51:06.018Z,101013.72
2022-10-28T07:53:32.793Z,101013.50
2022-10-28T07:56:05.765Z,101018.38
2022-10-28T07:58:32.511Z,101023.91
2022-10-28T08:01:04.418Z,101019.22
2022-10-28T08:03:38.054Z,101018.06
2022-10-28T08:06:06.845Z,101016.41
2022-10-28T08:08:33.820Z,101017.81
2022-10-28T08:11:08.850Z,101017.72
2022-10-28T08:13:38.052Z,101011.09
2022-10-28T08:16:10.630Z,101011.59
2022-10-28T08:18:43.866Z,101012.50
2022-10-28T08:21:13.940Z,101014.41
2022-10-28T08:23:43.804Z,101005.47
2022-10-28T08:26:10.203Z,100995.81
2022-10-28T08:28:36.609Z,100998.16
2022-10-28T08:31:09.332Z,100998.81
2022-10-28T08:33:44.223Z,101001.22
2022-10-28T08:36:15.729Z,100996.66
2022-10-28T08:38:46.566Z,101004.19
2022-10-28T08:41:36.087Z,100989.66
2022-10-28T08:44:33.622Z,100986.16
2022-10-28T08:47:05.820Z,100977.28
2022-10-28T08:49:35.937Z,100983.28
2022-10-28T08:52:27.356Z,100976.38
2022-10-28T08:54:59.713Z,100987.38
2022-10-28T08:57:36.803Z,100992.72
2022-10-28T09:00:07.504Z,100990.34
2022-10-28T09:03:06.262Z,100989.69
2022-10-28T09:05:33.035Z,100997.47
2022-10-28T09:08:01.083Z,100994.69
2022-10-28T09:10:46.424Z,100998.38
2022-10-28T09:13:15.689Z,100994.31
2022-10-28T09:16:20.877Z,100992.25
2022-10-28T09:18:58.441Z,101001.53
2022-10-28T09:21:50.861Z,100995.34
2022-10-28T09:24:50.767Z,101000.50
2022-10-28T09:27:23.174Z,100996.75
2022-10-28T09:30:04.929Z,101001.16
2022-10-28T09:32:37.341Z,101002.00
2022-10-28T09:35:13.826Z,100992.09
2022-10-28T09:37:49.374Z,100992.81
2022-10-28T09:40:21.716Z,100995.00
2022-10-28T09:42:56.867Z,100995.38
2022-10-28T09:45:31.183Z,101001.19
2022-10-28T09:48:09.065Z,101001.84
2022-10-28T09:50:35.530Z,100997.41
2022-10-28T09:53:23.569Z,101000.81
2022-10-28T09:55:50.811Z,101002.03
2022-10-28T09:58:18.605Z,101003.16
2022-10-28T10:00:45.511Z,100998.78
2022-10-28T10:03:12.002Z,101003.72
2022-10-28T10:05:43.756Z,101005.56
2022-10-28T10:08:14.937Z,101001.09
2022-10-28T10:11:00.942Z,101003.44
2022-10-28T10:13:32.597Z,101010.72
2022-10-28T10:16:04.740Z,101002.44
2022-10-28T10:18:36.595Z,101005.31
2022-10-28T10:21:03.788Z,101013.41
2022-10-28T10:23:35.553Z,101002.78
2022-10-28T10:26:08.112Z,101017.41
2022-10-28T10:28:45.285Z,101008.63
2022-10-28T10:31:29.714Z,101005.19
2022-10-28T10:33:57.752Z,101007.81
2022-10-28T10:36:28.726Z,100998.34
2022-10-28T10:39:00.557Z,100990.94
2022-10-28T10:41:56.463Z,101006.63
2022-10-28T10:45:02.751Z,100998.84
2022-10-28T10:47:35.089Z,100982.44
2022-10-28T10:50:22.210Z,100985.28
2022-10-28T10:53:21.031Z,100978.91
2022-10-28T10:55:54.792Z,100973.13
2022-10-28T10:58:24.680Z,100974.97
2022-10-28T11:00:54.082Z,100971.06
2022-10-28T11:03:34.809Z,100971.44
2022-10-28T11:06:22.696Z,100973.31
2022-10-28T11:08:54.189Z,100975.69
2022-10-28T11:11:22.094Z,100975.16
2022-10-28T11:14:01.649Z,100974.63
2022-10-28T11:16:28.093Z,100968.72
2022-10-28T11:18:54.498Z,100970.41
2022-10-28T11:21:27.448Z,100960.53
2022-10-28T11:24:35.997Z,100967.34
2022-10-28T11:27:36.564Z,100965.66
2022-10-28T11:30:05.859Z,100959.97
2022-10-28T11:33:01.718Z,100959.22
2022-10-28T11:35:48.229Z,100951.06
2022-10-28T11:38:45.513Z,100946.31
2022-10-28T11:41:27.554Z,100945.88
2022-10-28T11:43:59.669Z,100938.53
2022-10-28T11:47:05.137Z,100940.97
2022-10-28T11:49:47.576Z,100939.22
2022-10-28T11:52:49.577Z,100939.06
2022-10-28T11:55:38.557Z,100933.53
2022-10-28T11:58:20.005Z,100933.34
2022-10-28T12:01:17.260Z,100928.72
2022-10-28T12:04:05.276Z,100926.56
2022-10-28T12:07:01.004Z,100923.34
2022-10-28T12:09:55.379Z,100927.47
2022-10-28T12:12:51.609Z,100934.97
2022-10-28T12:15:43.258Z,100916.41
2022-10-28T12:18:28.120Z,100921.38
2022-10-28T12:21:13.606Z,100915.28
2022-10-28T12:23:41.949Z,100920.28
2022-10-28T12:26:13.589Z,100917.59
2022-10-28T12:28:51.660Z,100911.25
2022-10-28T12:31:45.880Z,100905.56
2022-10-28T12:34:48.273Z,100911.84
2022-10-28T12:37:36.867Z,100897.22
2022-10-28T12:40:12.025Z,100898.75
2022-10-28T12:42:55.819Z,100897.50
2022-10-28T12:45:23.931Z,100889.09
2022-10-28T12:48:15.225Z,100891.63
2022-10-28T12:50:59.086Z,100890.97
2022-10-28T12:53:40.741Z,100901.81
2022-10-28T12:56:15.963Z,100892.75
2022-10-28T12:58:59.751Z,100900.31
2022-10-28T13:01:30.707Z,100902.94
2022-10-28T13:03:57.581Z,100909.63
2022-10-28T13:09:32.184Z,100908.06
2022-10-28T13:12:27.908Z,100906.66
2022-10-28T13:15:16.277Z,100906.44
2022-10-28T13:18:29.842Z,100908.72
2022-10-28T13:21:07.345Z,100899.84
2022-10-28T13:23:53.961Z,100899.63
2022-10-28T13:26:35.710Z,100895.38
2022-10-28T13:29:07.232Z,100899.97
2022-10-28T13:31:53.610Z,100899.63
2022-10-28T13:34:29.045Z,100902.34
2022-10-28T13:36:59.350Z,100894.72
2022-10-28T13:39:42.499Z,100900.06
2022-10-28T13:42:23.177Z,100905.63
2022-10-28T13:44:51.249Z,100895.53
2022-10-28T13:47:17.645Z,100905.78
2022-10-28T13:50:08.856Z,100894.13
2022-10-28T13:52:37.370Z,100899.22
2022-10-28T13:55:18.893Z,100890.38
2022-10-28T13:57:48.182Z,100886.69
2022-10-28T14:00:17.697Z,100882.47
2022-10-28T14:02:59.359Z,100878.38
2022-10-28T14:05:32.137Z,100875.00
2022-10-28T14:08:01.664Z,100880.66
2022-10-28T14:10:34.132Z,100870.47
2022-10-28T14:13:05.109Z,100873.69
2022-10-28T14:15:34.630Z,100871.34
2022-10-28T14:21:05.652Z,100876.84
2022-10-28T14:23:36.385Z,100871.34
2022-10-28T14:26:05.418Z,100874.72
2022-10-28T14:28:31.917Z,100881.16
2022-10-28T14:31:07.619Z,100880.66
2022-10-28T14:33:54.201Z,100882.53
2022-10-28T14:36:20.573Z,100874.16
2022-10-28T14:39:21.125Z,100874.47
2022-10-28T14:42:22.555Z,100867.00
2022-10-28T14:45:19.392Z,100868.88
2022-10-28T14:48:19.805Z,100872.28
2022-10-28T14:50:49.533Z,100864.88
2022-10-28T14:53:25.627Z,100871.50
2022-10-28T14:56:07.966Z,100860.97
2022-10-28T14:58:40.753Z,100863.03
2022-10-28T15:01:16.145Z,100864.38
2022-10-28T15:03:52.647Z,100860.13
2022-10-28T15:06:25.039Z,100861.69
2022-10-28T15:08:52.453Z,100863.06
2022-10-28T15:11:19.521Z,100870.50
2022-10-28T15:13:51.227Z,100863.06
2022-10-28T15:16:25.390Z,100865.44
2022-10-28T15:18:54.189Z,100867.13
2022-10-28T15:21:22.683Z,100863.91
2022-10-28T15:23:59.789Z,100865.59
2022-10-28T15:26:26.343Z,100869.16
2022-10-28T15:28:52.835Z,100868.81
2022-10-28T15:31:19.283Z,100857.66
2022-10-28T15:33:45.669Z,100846.59
2022-10-28T15:36:17.517Z,100851.16
2022-10-28T15:38:52.716Z,100852.84
2022-10-28T15:41:25.106Z,100857.63
2022-10-28T15:44:00.539Z,100855.38
2022-10-28T15:46:28.298Z,100854.19
2022-10-28T15:48:57.049Z,100857.75
2022-10-28T15:51:24.114Z,100864.19
2022-10-28T15:53:55.251Z,100862.66
2022-10-28T15:56:24.370Z,100857.41
2022-10-28T15:58:59.541Z,100860.81
2022-10-28T16:01:31.428Z,100861.47
2022-10-28T16:03:58.002Z,100863.34
2022-10-28T16:06:29.148Z,100868.41
2022-10-28T16:08:59.571Z,100859.78
2022-10-28T16:11:26.319Z,100865.03
2022-10-28T16:13:52.753Z,100867.38
2022-10-28T16:16:28.856Z,100863.31
2022-10-28T16:19:06.805Z,100870.56
2022-10-28T16:21:34.071Z,100877.34
2022-10-28T16:24:00.573Z,100873.94
2022-10-28T16:26:27.552Z,100877.00
2022-10-28T16:28:54.060Z,100878.50
2022-10-28T16:31:25.004Z,100880.50
2022-10-28T16:33:51.555Z,100877.50
2022-10-28T16:36:17.962Z,100878.16
2022-10-28T16:38:44.382Z,100878.50
2022-10-28T16:41:16.927Z,100882.91
2022-10-28T16:43:43.717Z,100886.28
2022-10-28T16:46:12.779Z,100883.88
2022-10-28T16:48:39.869Z,100888.94
2022-10-28T16:51:13.903Z,100893.50
2022-10-28T16:53:42.478Z,100888.72
2022-10-28T16:56:13.752Z,100891.25
2022-10-28T16:58:42.330Z,100892.56
2022-10-28T17:01:12.209Z,100895.97
2022-10-28T17:03:38.722Z,100891.91
2022-10-28T17:06:05.392Z,100896.88
2022-10-28T17:09:00.817Z,100900.44
2022-10-28T17:11:18.278Z,100900.53
2022-10-28T17:13:44.756Z,100897.84
2022-10-28T17:16:12.761Z,100902.94
2022-10-28T17:18:39.223Z,100904.38
2022-10-28T17:21:06.167Z,100912.00
2022-10-28T17:23:32.592Z,100908.91
2022-10-28T17:26:00.237Z,100921.78
2022-10-28T17:28:26.783Z,100912.91
2022-10-28T17:30:53.983Z,100913.38
2022-10-28T17:33:20.372Z,100920.78
2022-10-28T17:35:46.780Z,100920.84
2022-10-28T17:38:13.186Z,100932.97
2022-10-28T17:40:39.570Z,100931.47
2022-10-28T17:43:05.983Z,100924.56
2022-10-28T17:45:32.367Z,100935.88
2022-10-28T17:47:59.541Z,100936.44
2022-10-28T17:50:25.985Z,100935.38
2022-10-28T17:52:53.331Z,100937.09
2022-10-28T17:55:19.998Z,100931.09
2022-10-28T17:57:46.509Z,100936.53
2022-10-28T18:00:13.665Z,100934.25
2022-10-28T18:02:40.419Z,100935.09
2022-10-28T18:05:07.404Z,100939.25
2022-10-28T18:07:33.946Z,100943.31
2022-10-28T18:10:00.364Z,100950.00
2022-10-28T18:12:26.864Z,100952.22
2022-10-28T18:14:53.249Z,100940.34
2022-10-28T18:17:19.674Z,100950.22
2022-10-28T18:19:46.056Z,100944.97
2022-10-28T18:22:12.519Z,100956.47
2022-10-28T18:24:38.960Z,100950.44
2022-10-28T18:27:05.392Z,100946.97
2022-10-28T18:29:31.900Z,100950.59
2022-10-28T18:32:00.575Z,100949.13
2022-10-28T18:34:27.481Z,100947.06
2022-10-28T18:36:53.965Z,100950.84
2022-10-28T18:39:20.382Z,100962.50
2022-10-28T18:41:46.835Z,100957.19
2022-10-28T18:44:14.386Z,100959.25
2022-10-28T18:46:41.310Z,100957.69
2022-10-28T18:49:08.077Z,100963.25
2022-10-28T18:51:34.513Z,100967.28
2022-10-28T18:54:01.080Z,100973.44
2022-10-28T18:56:29.272Z,100967.44
2022-10-28T18:58:57.018Z,100968.78
2022-10-28T19:01:28.442Z,100983.91
2022-10-28T19:03:57.304Z,100977.41
2022-10-28T19:06:26.079Z,100987.78
2022-10-28T19:08:54.924Z,100984.00
2022-10-28T19:11:22.701Z,100988.06
2022-10-28T19:13:49.164Z,100995.81
2022-10-28T19:16:15.606Z,100996.09
2022-10-28T19:18:42.123Z,101001.81
2022-10-28T19:21:17.351Z,100993.88
2022-10-28T19:23:43.959Z,100993.31
2022-10-28T19:26:11.389Z,100994.75
2022-10-28T19:28:39.386Z,100996.78
2022-10-28T19:31:08.478Z,100991.94
2022-10-28T19:33:38.099Z,100998.13
2022-10-28T19:36:04.639Z,101003.53
2022-10-28T19:38:33.261Z,101008.34
2022-10-28T19:41:08.540Z,101008.72
2022-10-28T19:43:35.873Z,101005.44
2022-10-28T19:46:10.168Z,101007.22
2022-10-28T19:48:38.261Z,101007.13
2022-10-28T19:51:04.849Z,101011.25
2022-10-28T19:53:31.579Z,101012.31
2022-10-28T19:56:00.016Z,101021.63
2022-10-28T19:58:27.711Z,101023.41
2022-10-28T20:01:05.463Z,101027.09
2022-10-28T20:03:34.590Z,101035.41
2022-10-28T20:06:08.476Z,101039.97
2022-10-28T20:08:37.061Z,101044.22
2022-10-28T20:11:06.247Z,101050.34
2022-10-28T20:13:33.675Z,101050.78
2022-10-28T20:16:05.702Z,101061.56
2022-10-28T20:18:33.149Z,101071.03
2022-10-28T20:21:19.766Z,101068.59
2022-10-28T20:23:49.329Z,101075.84
2022-10-28T20:26:16.991Z,101073.38
2022-10-28T20:28:43.412Z,101077.09
2022-10-28T20:31:15.672Z,101072.69
2022-10-28T20:33:44.357Z,101084.50
2022-10-28T20:36:36.432Z,101073.13
2022-10-28T20:39:08.749Z,101075.41
2022-10-28T20:41:37.306Z,101086.63
2022-10-28T20:44:06.127Z,101088.50
2022-10-28T20:46:33.520Z,101098.84
2022-10-28T20:49:00.901Z,101087.78
2022-10-28T20:51:30.243Z,101095.41
2022-10-28T20:53:56.890Z,101094.00
2022-10-28T20:56:28.475Z,101089.47
2022-10-28T20:58:55.889Z,101098.97
2022-10-28T21:01:36.126Z,101101.78
2022-10-28T21:04:05.218Z,101099.09
2022-10-28T21:06:32.307Z,101103.22
2022-10-28T21:08:59.069Z,101110.47
2022-10-28T21:11:26.756Z,101112.66
2022-10-28T21:13:55.687Z,101116.19
2022-10-28T21:16:22.877Z,101127.91
2022-10-28T21:18:50.184Z,101133.38
2022-10-28T21:21:18.021Z,101138.25
2022-10-28T21:23:44.580Z,101137.81
2022-10-28T21:26:12.682Z,101144.94
2022-10-28T21:28:41.419Z,101146.50
2022-10-28T21:31:13.369Z,101156.56
2022-10-28T21:33:40.999Z,101158.56
2022-10-28T21:36:18.942Z,101164.44
2022-10-28T21:38:45.711Z,101174.56
2022-10-28T21:41:18.483Z,101178.28
2022-10-28T21:43:50.360Z,101175.78
2022-10-28T21:46:18.344Z,101169.88
2022-10-28T21:48:45.023Z,101176.94
2022-10-28T21:51:14.776Z,101175.94
2022-10-28T21:53:42.698Z,101171.25
2022-10-28T21:56:16.611Z,101182.41
2022-10-28T21:58:44.751Z,101175.72
2022-10-28T22:01:17.095Z,101171.91
2022-10-28T22:03:43.674Z,101180.78
2022-10-28T22:06:10.827Z,101178.88
2022-10-28T22:08:37.259Z,101179.31
2022-10-28T22:11:08.395Z,101179.94
2022-10-28T22:13:35.047Z,101163.38
2022-10-28T22:16:19.370Z,101169.22
2022-10-28T22:18:46.380Z,101178.19
2022-10-28T22:21:14.841Z,101181.03
2022-10-28T22:23:41.600Z,101179.78
2022-10-28T22:26:11.345Z,101188.38
2022-10-28T22:28:38.279Z,101188.31
2022-10-28T22:31:07.346Z,101186.09
2022-10-28T22:33:34.013Z,101185.03
2022-10-28T22:36:02.942Z,101188.47
2022-10-28T22:38:29.531Z,101186.38
2022-10-28T22:41:06.260Z,101187.03
2022-10-28T22:43:33.284Z,101190.16
2022-10-28T22:46:00.549Z,101187.34
2022-10-28T22:48:27.983Z,101189.78
2022-10-28T22:50:54.437Z,101189.63
2022-10-28T22:53:21.102Z,101194.16
2022-10-28T22:55:48.643Z,101189.59
2022-10-28T22:58:18.387Z,101191.81
2022-10-28T23:00:45.108Z,101198.91
2022-10-28T23:03:12.440Z,101204.28
2022-10-28T23:05:39.988Z,101200.28
2022-10-28T23:08:06.979Z,101201.91
2022-10-28T23:10:33.881Z,101199.53
2022-10-28T23:13:01.738Z,101209.81
2022-10-28T23:15:29.550Z,101217.59
2022-10-28T23:17:56.311Z,101228.34
2022-10-28T23:20:24.876Z,101240.34
2022-10-28T23:22:51.345Z,101235.69
2022-10-28T23:25:17.709Z,101236.69
2022-10-28T23:27:44.459Z,101223.63
2022-10-28T23:30:12.927Z,101222.06
2022-10-28T23:32:39.922Z,101223.78
2022-10-28T23:35:07.588Z,101229.88
2022-10-28T23:37:33.988Z,101221.47
2022-10-28T23:40:00.440Z,101226.25
2022-10-28T23:42:26.914Z,101221.38
2022-10-28T23:44:53.304Z,101216.97
2022-10-28T23:47:19.683Z,101220.75
2022-10-28T23:49:46.082Z,101223.09
2022-10-28T23:52:12.462Z,101224.81
2022-10-28T23:54:38.873Z,101226.88
2022-10-28T23:57:05.344Z,101220.66
2022-10-28T23:59:31.762Z,101223.13
